sensor_id;sensor_type;location;lat;lon;timestamp;pressure;altitude;pressure_sealevel;temperature;humidity
43115;BME280;28727;50.068;14.452;2023-02-26T00:00:31;98482.09;;;0.56;76.99
43115;BME280;28727;50.068;14.452;2023-02-26T00:03:03;98486.72;;;0.52;76.86
43115;BME280;28727;50.068;14.452;2023-02-26T00:05:35;98487.09;;;0.48;76.88
43115;BME280;28727;50.068;14.452;2023-02-26T00:08:10;98480.00;;;0.50;77.13
43115;BME280;28727;50.068;14.452;2023-02-26T00:10:41;98483.97;;;0.54;77.06
43115;BME280;28727;50.068;14.452;2023-02-26T00:13:15;98484.13;;;0.52;76.92
43115;BME280;28727;50.068;14.452;2023-02-26T00:15:55;98487.41;;;0.54;76.51
43115;BME280;28727;50.068;14.452;2023-02-26T00:18:29;98497.63;;;0.46;76.78
43115;BME280;28727;50.068;14.452;2023-02-26T00:21:01;98497.97;;;0.41;76.90
43115;BME280;28727;50.068;14.452;2023-02-26T00:23:33;98497.53;;;0.36;77.11
43115;BME280;28727;50.068;14.452;2023-02-26T00:26:05;98501.03;;;0.47;76.47
43115;BME280;28727;50.068;14.452;2023-02-26T00:28:38;98506.03;;;0.38;77.03
43115;BME280;28727;50.068;14.452;2023-02-26T00:31:13;98523.38;;;0.38;77.28
43115;BME280;28727;50.068;14.452;2023-02-26T00:33:46;98510.28;;;0.39;77.26
43115;BME280;28727;50.068;14.452;2023-02-26T00:36:43;98513.72;;;0.40;77.55
43115;BME280;28727;50.068;14.452;2023-02-26T00:42:15;98522.50;;;0.49;77.15
43115;BME280;28727;50.068;14.452;2023-02-26T00:44:52;98527.03;;;0.47;77.01
43115;BME280;28727;50.068;14.452;2023-02-26T00:50:47;98527.53;;;0.40;77.20
43115;BME280;28727;50.068;14.452;2023-02-26T00:53:58;98534.22;;;0.43;77.21
43115;BME280;28727;50.068;14.452;2023-02-26T00:56:32;98527.16;;;0.45;77.02
43115;BME280;28727;50.068;14.452;2023-02-26T00:59:04;98534.00;;;0.46;76.97
43115;BME280;28727;50.068;14.452;2023-02-26T01:01:39;98538.91;;;0.49;77.04
43115;BME280;28727;50.068;14.452;2023-02-26T01:04:15;98537.53;;;0.45;76.75
43115;BME280;28727;50.068;14.452;2023-02-26T01:06:56;98535.06;;;0.44;77.24
43115;BME280;28727;50.068;14.452;2023-02-26T01:09:38;98545.50;;;0.53;77.21
43115;BME280;28727;50.068;14.452;2023-02-26T01:12:14;98548.44;;;0.60;77.20
43115;BME280;28727;50.068;14.452;2023-02-26T01:14:48;98547.25;;;0.64;76.68
43115;BME280;28727;50.068;14.452;2023-02-26T01:17:24;98548.31;;;0.61;76.38
43115;BME280;28727;50.068;14.452;2023-02-26T01:20:17;98545.00;;;0.59;76.67
43115;BME280;28727;50.068;14.452;2023-02-26T01:22:53;98549.03;;;0.63;76.72
43115;BME280;28727;50.068;14.452;2023-02-26T01:25:33;98550.03;;;0.72;75.87
43115;BME280;28727;50.068;14.452;2023-02-26T01:28:07;98547.75;;;0.58;76.32
43115;BME280;28727;50.068;14.452;2023-02-26T01:30:40;98561.25;;;0.52;75.85
43115;BME280;28727;50.068;14.452;2023-02-26T01:33:31;98564.34;;;0.46;76.34
43115;BME280;28727;50.068;14.452;2023-02-26T01:36:13;98563.75;;;0.42;76.07
43115;BME280;28727;50.068;14.452;2023-02-26T01:41:54;98569.81;;;0.31;76.40
43115;BME280;28727;50.068;14.452;2023-02-26T01:47:22;98563.69;;;0.32;76.62
43115;BME280;28727;50.068;14.452;2023-02-26T01:49:57;98568.03;;;0.32;76.67
43115;BME280;28727;50.068;14.452;2023-02-26T01:55:25;98575.91;;;0.41;76.21
43115;BME280;28727;50.068;14.452;2023-02-26T01:58:02;98576.50;;;0.45;76.13
43115;BME280;28727;50.068;14.452;2023-02-26T02:00:36;98583.56;;;0.43;75.82
43115;BME280;28727;50.068;14.452;2023-02-26T02:03:09;98587.59;;;0.47;75.30
43115;BME280;28727;50.068;14.452;2023-02-26T02:06:28;98594.22;;;0.40;75.15
43115;BME280;28727;50.068;14.452;2023-02-26T02:08:42;98591.03;;;0.36;75.48
43115;BME280;28727;50.068;14.452;2023-02-26T02:11:17;98591.88;;;0.37;75.17
43115;BME280;28727;50.068;14.452;2023-02-26T02:16:53;98604.03;;;0.36;74.97
43115;BME280;28727;50.068;14.452;2023-02-26T02:37:01;98617.59;;;0.40;74.10
43115;BME280;28727;50.068;14.452;2023-02-26T02:40:00;98618.28;;;0.42;74.06
43115;BME280;28727;50.068;14.452;2023-02-26T02:43:01;98610.25;;;0.45;73.93
43115;BME280;28727;50.068;14.452;2023-02-26T02:45:42;98621.09;;;0.50;73.29
43115;BME280;28727;50.068;14.452;2023-02-26T02:48:23;98624.28;;;0.54;73.45
43115;BME280;28727;50.068;14.452;2023-02-26T02:53:39;98627.34;;;0.59;73.36
43115;BME280;28727;50.068;14.452;2023-02-26T02:56:35;98634.44;;;0.57;72.58
43115;BME280;28727;50.068;14.452;2023-02-26T03:00:06;98638.34;;;0.51;72.63
43115;BME280;28727;50.068;14.452;2023-02-26T03:05:02;98650.13;;;0.55;72.67
43115;BME280;28727;50.068;14.452;2023-02-26T03:07:46;98652.50;;;0.58;72.44
43115;BME280;28727;50.068;14.452;2023-02-26T03:10:20;98660.97;;;0.60;72.52
43115;BME280;28727;50.068;14.452;2023-02-26T03:12:54;98653.91;;;0.62;72.58
43115;BME280;28727;50.068;14.452;2023-02-26T03:18:07;98675.03;;;0.69;71.91
43115;BME280;28727;50.068;14.452;2023-02-26T03:23:44;98678.72;;;0.55;71.94
43115;BME280;28727;50.068;14.452;2023-02-26T03:29:02;98675.41;;;0.64;72.43
43115;BME280;28727;50.068;14.452;2023-02-26T03:31:51;98684.25;;;0.62;72.04
43115;BME280;28727;50.068;14.452;2023-02-26T03:37:35;98701.56;;;0.72;71.91
43115;BME280;28727;50.068;14.452;2023-02-26T03:40:17;98697.22;;;0.73;71.47
43115;BME280;28727;50.068;14.452;2023-02-26T03:42:56;98703.34;;;0.72;71.18
43115;BME280;28727;50.068;14.452;2023-02-26T03:45:33;98715.78;;;0.68;71.03
43115;BME280;28727;50.068;14.452;2023-02-26T03:48:08;98719.19;;;0.69;70.76
43115;BME280;28727;50.068;14.452;2023-02-26T03:50:47;98711.28;;;0.59;71.16
43115;BME280;28727;50.068;14.452;2023-02-26T03:53:35;98722.41;;;0.61;70.86
43115;BME280;28727;50.068;14.452;2023-02-26T03:56:37;98723.00;;;0.65;71.26
43115;BME280;28727;50.068;14.452;2023-02-26T03:59:29;98717.56;;;0.57;71.27
43115;BME280;28727;50.068;14.452;2023-02-26T04:02:49;98724.78;;;0.64;71.45
43115;BME280;28727;50.068;14.452;2023-02-26T04:05:27;98733.97;;;0.68;70.87
43115;BME280;28727;50.068;14.452;2023-02-26T04:08:13;98738.22;;;0.69;70.63
43115;BME280;28727;50.068;14.452;2023-02-26T04:10:52;98736.78;;;0.65;70.75
43115;BME280;28727;50.068;14.452;2023-02-26T04:13:26;98737.50;;;0.67;70.81
43115;BME280;28727;50.068;14.452;2023-02-26T04:15:58;98740.38;;;0.64;70.29
43115;BME280;28727;50.068;14.452;2023-02-26T04:18:31;98746.25;;;0.66;70.51
43115;BME280;28727;50.068;14.452;2023-02-26T04:21:03;98741.19;;;0.65;70.39
43115;BME280;28727;50.068;14.452;2023-02-26T04:23:35;98744.84;;;0.62;70.80
43115;BME280;28727;50.068;14.452;2023-02-26T04:26:07;98750.75;;;0.64;70.81
43115;BME280;28727;50.068;14.452;2023-02-26T04:28:42;98744.00;;;0.62;70.82
43115;BME280;28727;50.068;14.452;2023-02-26T04:31:18;98754.31;;;0.63;70.86
43115;BME280;28727;50.068;14.452;2023-02-26T04:33:50;98755.97;;;0.64;71.18
43115;BME280;28727;50.068;14.452;2023-02-26T04:36:22;98760.41;;;0.73;71.08
43115;BME280;28727;50.068;14.452;2023-02-26T04:38:54;98763.34;;;0.80;71.02
43115;BME280;28727;50.068;14.452;2023-02-26T04:41:26;98760.50;;;0.83;70.70
43115;BME280;28727;50.068;14.452;2023-02-26T04:43:58;98758.72;;;0.83;70.69
43115;BME280;28727;50.068;14.452;2023-02-26T04:46:33;98761.91;;;0.87;70.26
43115;BME280;28727;50.068;14.452;2023-02-26T04:49:05;98767.69;;;0.91;70.31
43115;BME280;28727;50.068;14.452;2023-02-26T04:51:40;98773.25;;;0.86;70.19
43115;BME280;28727;50.068;14.452;2023-02-26T04:54:12;98770.66;;;0.86;70.29
43115;BME280;28727;50.068;14.452;2023-02-26T04:56:44;98778.56;;;0.85;70.13
43115;BME280;28727;50.068;14.452;2023-02-26T04:59:19;98782.34;;;0.92;70.08
43115;BME280;28727;50.068;14.452;2023-02-26T05:01:51;98790.16;;;0.92;69.98
43115;BME280;28727;50.068;14.452;2023-02-26T05:04:26;98792.78;;;0.80;69.64
43115;BME280;28727;50.068;14.452;2023-02-26T05:07:03;98788.28;;;0.71;69.82
43115;BME280;28727;50.068;14.452;2023-02-26T05:09:35;98792.19;;;0.66;69.61
43115;BME280;28727;50.068;14.452;2023-02-26T05:12:07;98799.03;;;0.67;69.72
43115;BME280;28727;50.068;14.452;2023-02-26T05:14:39;98797.88;;;0.60;69.85
43115;BME280;28727;50.068;14.452;2023-02-26T05:17:15;98788.44;;;0.59;69.58
43115;BME280;28727;50.068;14.452;2023-02-26T05:19:49;98791.84;;;0.59;69.41
43115;BME280;28727;50.068;14.452;2023-02-26T05:22:24;98795.28;;;0.60;69.38
43115;BME280;28727;50.068;14.452;2023-02-26T05:24:56;98800.34;;;0.61;69.05
43115;BME280;28727;50.068;14.452;2023-02-26T05:27:28;98802.00;;;0.62;68.98
43115;BME280;28727;50.068;14.452;2023-02-26T05:30:02;98813.34;;;0.61;69.03
43115;BME280;28727;50.068;14.452;2023-02-26T05:32:34;98817.81;;;0.59;68.90
43115;BME280;28727;50.068;14.452;2023-02-26T05:35:07;98819.13;;;0.54;68.86
43115;BME280;28727;50.068;14.452;2023-02-26T05:37:41;98826.25;;;0.52;69.30
43115;BME280;28727;50.068;14.452;2023-02-26T05:40:13;98823.28;;;0.56;69.16
43115;BME280;28727;50.068;14.452;2023-02-26T05:42:48;98831.31;;;0.64;69.31
43115;BME280;28727;50.068;14.452;2023-02-26T05:45:20;98835.31;;;0.68;68.69
43115;BME280;28727;50.068;14.452;2023-02-26T05:47:51;98840.16;;;0.73;68.61
43115;BME280;28727;50.068;14.452;2023-02-26T05:50:23;98842.41;;;0.66;68.55
43115;BME280;28727;50.068;14.452;2023-02-26T05:52:55;98856.09;;;0.68;68.76
43115;BME280;28727;50.068;14.452;2023-02-26T05:55:30;98859.75;;;0.66;68.87
43115;BME280;28727;50.068;14.452;2023-02-26T05:58:02;98858.72;;;0.68;67.90
43115;BME280;28727;50.068;14.452;2023-02-26T06:00:37;98868.53;;;0.76;68.04
43115;BME280;28727;50.068;14.452;2023-02-26T06:03:09;98874.03;;;0.82;67.98
43115;BME280;28727;50.068;14.452;2023-02-26T06:05:40;98874.28;;;0.79;67.93
43115;BME280;28727;50.068;14.452;2023-02-26T06:08:16;98884.59;;;0.81;67.65
43115;BME280;28727;50.068;14.452;2023-02-26T06:10:49;98887.19;;;0.81;67.70
43115;BME280;28727;50.068;14.452;2023-02-26T06:13:25;98894.84;;;0.82;67.95
43115;BME280;28727;50.068;14.452;2023-02-26T06:15:56;98896.63;;;0.82;68.08
43115;BME280;28727;50.068;14.452;2023-02-26T06:18:28;98900.53;;;0.88;67.91
43115;BME280;28727;50.068;14.452;2023-02-26T06:21:00;98912.56;;;0.89;68.12
43115;BME280;28727;50.068;14.452;2023-02-26T06:23:35;98919.31;;;0.91;67.52
43115;BME280;28727;50.068;14.452;2023-02-26T06:26:07;98916.13;;;0.99;66.98
43115;BME280;28727;50.068;14.452;2023-02-26T06:28:39;98928.97;;;1.00;67.21
43115;BME280;28727;50.068;14.452;2023-02-26T06:31:14;98933.84;;;0.94;66.77
43115;BME280;28727;50.068;14.452;2023-02-26T06:33:45;98942.81;;;0.90;66.75
43115;BME280;28727;50.068;14.452;2023-02-26T06:36:17;98940.94;;;0.80;66.71
43115;BME280;28727;50.068;14.452;2023-02-26T06:38:49;98947.66;;;0.72;67.12
43115;BME280;28727;50.068;14.452;2023-02-26T06:41:21;98952.75;;;0.73;67.46
43115;BME280;28727;50.068;14.452;2023-02-26T06:43:53;98950.50;;;0.80;67.63
43115;BME280;28727;50.068;14.452;2023-02-26T06:46:25;98960.44;;;0.86;67.23
43115;BME280;28727;50.068;14.452;2023-02-26T06:49:01;98953.00;;;0.81;67.25
43115;BME280;28727;50.068;14.452;2023-02-26T06:51:33;98962.31;;;0.84;67.10
43115;BME280;28727;50.068;14.452;2023-02-26T06:54:05;98968.91;;;0.77;66.88
43115;BME280;28727;50.068;14.452;2023-02-26T06:56:40;98973.78;;;0.70;67.39
43115;BME280;28727;50.068;14.452;2023-02-26T06:59:12;98977.78;;;0.74;67.63
43115;BME280;28727;50.068;14.452;2023-02-26T07:01:45;98984.03;;;0.83;67.44
43115;BME280;28727;50.068;14.452;2023-02-26T07:04:17;98990.34;;;0.92;67.37
43115;BME280;28727;50.068;14.452;2023-02-26T07:06:51;98991.75;;;0.96;67.11
43115;BME280;28727;50.068;14.452;2023-02-26T07:09:23;98994.50;;;0.94;67.33
43115;BME280;28727;50.068;14.452;2023-02-26T07:11:57;99006.06;;;1.01;67.10
43115;BME280;28727;50.068;14.452;2023-02-26T07:14:29;99003.81;;;1.08;67.20
43115;BME280;28727;50.068;14.452;2023-02-26T07:17:01;99012.09;;;1.13;66.50
43115;BME280;28727;50.068;14.452;2023-02-26T07:19:33;99009.94;;;1.18;66.15
43115;BME280;28727;50.068;14.452;2023-02-26T07:22:05;99018.84;;;1.15;66.42
43115;BME280;28727;50.068;14.452;2023-02-26T07:24:37;99022.84;;;1.19;66.29
43115;BME280;28727;50.068;14.452;2023-02-26T07:27:10;99030.44;;;1.22;66.23
43115;BME280;28727;50.068;14.452;2023-02-26T07:29:42;99029.25;;;1.27;66.14
43115;BME280;28727;50.068;14.452;2023-02-26T07:32:15;99032.66;;;1.38;65.20
43115;BME280;28727;50.068;14.452;2023-02-26T07:34:47;99050.88;;;1.38;64.97
43115;BME280;28727;50.068;14.452;2023-02-26T07:37:18;99040.47;;;1.49;65.12
43115;BME280;28727;50.068;14.452;2023-02-26T07:39:50;99046.47;;;3.00;61.64
43115;BME280;28727;50.068;14.452;2023-02-26T07:42:24;99048.16;;;2.89;60.40
43115;BME280;28727;50.068;14.452;2023-02-26T07:44:57;99057.22;;;2.85;60.46
43115;BME280;28727;50.068;14.452;2023-02-26T07:47:30;99058.00;;;2.76;60.19
43115;BME280;28727;50.068;14.452;2023-02-26T07:50:02;99063.66;;;2.81;59.90
43115;BME280;28727;50.068;14.452;2023-02-26T07:52:34;99067.66;;;2.65;60.43
43115;BME280;28727;50.068;14.452;2023-02-26T07:55:07;99071.31;;;2.41;61.15
43115;BME280;28727;50.068;14.452;2023-02-26T07:57:43;99070.47;;;2.30;61.18
43115;BME280;28727;50.068;14.452;2023-02-26T08:00:15;99073.75;;;2.11;61.45
43115;BME280;28727;50.068;14.452;2023-02-26T08:02:47;99079.69;;;2.02;62.40
43115;BME280;28727;50.068;14.452;2023-02-26T08:05:19;99085.25;;;2.09;62.90
43115;BME280;28727;50.068;14.452;2023-02-26T08:07:53;99085.81;;;2.23;62.32
43115;BME280;28727;50.068;14.452;2023-02-26T08:10:29;99083.50;;;2.30;62.14
43115;BME280;28727;50.068;14.452;2023-02-26T08:13:03;99086.56;;;2.46;61.66
43115;BME280;28727;50.068;14.452;2023-02-26T08:15:35;99090.78;;;2.79;62.13
43115;BME280;28727;50.068;14.452;2023-02-26T08:18:07;99088.38;;;3.08;61.17
43115;BME280;28727;50.068;14.452;2023-02-26T08:20:39;99089.66;;;3.13;60.19
43115;BME280;28727;50.068;14.452;2023-02-26T08:23:10;99099.84;;;2.96;59.79
43115;BME280;28727;50.068;14.452;2023-02-26T08:25:43;99114.41;;;2.98;59.77
43115;BME280;28727;50.068;14.452;2023-02-26T08:28:16;99107.09;;;2.92;60.22
43115;BME280;28727;50.068;14.452;2023-02-26T08:30:51;99116.44;;;2.95;59.86
43115;BME280;28727;50.068;14.452;2023-02-26T08:33:24;99116.13;;;2.88;60.39
43115;BME280;28727;50.068;14.452;2023-02-26T08:35:56;99127.41;;;2.88;59.39
43115;BME280;28727;50.068;14.452;2023-02-26T08:38:30;99122.69;;;2.82;59.63
43115;BME280;28727;50.068;14.452;2023-02-26T08:41:02;99127.13;;;2.71;60.04
43115;BME280;28727;50.068;14.452;2023-02-26T08:43:34;99127.75;;;2.84;59.81
43115;BME280;28727;50.068;14.452;2023-02-26T08:46:07;99130.50;;;2.82;59.60
43115;BME280;28727;50.068;14.452;2023-02-26T08:48:39;99139.31;;;2.70;60.24
43115;BME280;28727;50.068;14.452;2023-02-26T08:51:14;99148.28;;;2.88;59.26
43115;BME280;28727;50.068;14.452;2023-02-26T08:53:46;99151.56;;;2.91;59.52
43115;BME280;28727;50.068;14.452;2023-02-26T08:56:20;99148.72;;;2.94;58.85
43115;BME280;28727;50.068;14.452;2023-02-26T08:58:52;99152.22;;;3.04;58.50
43115;BME280;28727;50.068;14.452;2023-02-26T09:01:24;99162.09;;;3.00;58.24
43115;BME280;28727;50.068;14.452;2023-02-26T09:03:56;99159.84;;;2.96;58.22
43115;BME280;28727;50.068;14.452;2023-02-26T09:06:28;99166.81;;;2.95;58.33
43115;BME280;28727;50.068;14.452;2023-02-26T09:09:02;99168.38;;;2.98;58.50
43115;BME280;28727;50.068;14.452;2023-02-26T09:11:34;99164.81;;;2.99;58.59
43115;BME280;28727;50.068;14.452;2023-02-26T09:14:10;99175.97;;;2.89;57.42
43115;BME280;28727;50.068;14.452;2023-02-26T09:16:42;99171.44;;;2.71;58.41
43115;BME280;28727;50.068;14.452;2023-02-26T09:19:14;99179.63;;;2.66;57.83
43115;BME280;28727;50.068;14.452;2023-02-26T09:21:45;99177.38;;;2.62;59.04
43115;BME280;28727;50.068;14.452;2023-02-26T09:24:18;99190.53;;;2.60;58.25
43115;BME280;28727;50.068;14.452;2023-02-26T09:26:49;99188.91;;;2.59;58.84
43115;BME280;28727;50.068;14.452;2023-02-26T09:29:21;99196.13;;;2.56;58.69
43115;BME280;28727;50.068;14.452;2023-02-26T09:31:53;99196.94;;;2.67;58.66
43115;BME280;28727;50.068;14.452;2023-02-26T09:34:25;99200.63;;;2.65;59.01
43115;BME280;28727;50.068;14.452;2023-02-26T09:36:57;99195.22;;;2.88;58.71
43115;BME280;28727;50.068;14.452;2023-02-26T09:39:32;99202.06;;;3.42;57.53
43115;BME280;28727;50.068;14.452;2023-02-26T09:45:30;99194.63;;;4.78;55.09
43115;BME280;28727;50.068;14.452;2023-02-26T09:48:05;99200.44;;;5.20;53.77
43115;BME280;28727;50.068;14.452;2023-02-26T09:50:55;99207.06;;;5.05;52.59
43115;BME280;28727;50.068;14.452;2023-02-26T09:53:32;99203.47;;;5.25;55.79
43115;BME280;28727;50.068;14.452;2023-02-26T09:56:32;99211.06;;;5.00;51.85
43115;BME280;28727;50.068;14.452;2023-02-26T09:59:08;99205.88;;;4.60;51.25
43115;BME280;28727;50.068;14.452;2023-02-26T10:01:57;99225.25;;;4.38;52.67
43115;BME280;28727;50.068;14.452;2023-02-26T10:04:57;99223.91;;;4.13;53.15
43115;BME280;28727;50.068;14.452;2023-02-26T10:13:39;99231.28;;;3.36;53.89
43115;BME280;28727;50.068;14.452;2023-02-26T10:16:31;99230.72;;;3.33;54.33
43115;BME280;28727;50.068;14.452;2023-02-26T10:19:10;99242.19;;;3.41;54.30
43115;BME280;28727;50.068;14.452;2023-02-26T10:21:56;99238.09;;;3.27;55.64
43115;BME280;28727;50.068;14.452;2023-02-26T10:24:43;99237.38;;;3.57;55.26
43115;BME280;28727;50.068;14.452;2023-02-26T10:27:21;99248.31;;;3.51;54.61
43115;BME280;28727;50.068;14.452;2023-02-26T10:30:02;99250.03;;;3.41;55.07
43115;BME280;28727;50.068;14.452;2023-02-26T10:35:36;99266.50;;;3.42;55.19
43115;BME280;28727;50.068;14.452;2023-02-26T10:38:17;99265.03;;;3.28;55.42
43115;BME280;28727;50.068;14.452;2023-02-26T10:41:01;99278.03;;;3.07;56.31
43115;BME280;28727;50.068;14.452;2023-02-26T10:52:30;99279.06;;;3.16;58.80
43115;BME280;28727;50.068;14.452;2023-02-26T10:55:36;99272.69;;;3.41;58.63
43115;BME280;28727;50.068;14.452;2023-02-26T10:58:12;99268.25;;;3.52;57.56
43115;BME280;28727;50.068;14.452;2023-02-26T11:01:13;99280.03;;;3.47;58.33
43115;BME280;28727;50.068;14.452;2023-02-26T11:03:50;99284.28;;;3.48;58.23
43115;BME280;28727;50.068;14.452;2023-02-26T11:06:52;99286.97;;;3.25;58.17
43115;BME280;28727;50.068;14.452;2023-02-26T11:12:12;99292.38;;;3.02;59.59
43115;BME280;28727;50.068;14.452;2023-02-26T11:14:44;99288.94;;;3.01;60.03
43115;BME280;28727;50.068;14.452;2023-02-26T11:17:22;99306.06;;;2.94;59.75
43115;BME280;28727;50.068;14.452;2023-02-26T11:20:01;99298.91;;;3.07;60.08
43115;BME280;28727;50.068;14.452;2023-02-26T11:22:35;99285.69;;;3.52;59.70
43115;BME280;28727;50.068;14.452;2023-02-26T11:25:12;99280.09;;;3.56;59.46
43115;BME280;28727;50.068;14.452;2023-02-26T11:27:47;99286.66;;;3.51;59.37
43115;BME280;28727;50.068;14.452;2023-02-26T11:30:20;99287.38;;;3.53;59.68
43115;BME280;28727;50.068;14.452;2023-02-26T11:32:58;99290.31;;;3.48;59.48
43115;BME280;28727;50.068;14.452;2023-02-26T11:35:34;99289.38;;;3.49;60.47
43115;BME280;28727;50.068;14.452;2023-02-26T11:38:13;99300.03;;;3.57;60.70
43115;BME280;28727;50.068;14.452;2023-02-26T11:40:52;99300.88;;;3.58;61.09
43115;BME280;28727;50.068;14.452;2023-02-26T11:43:36;99305.94;;;3.59;61.30
43115;BME280;28727;50.068;14.452;2023-02-26T11:46:13;99304.16;;;3.60;60.70
43115;BME280;28727;50.068;14.452;2023-02-26T11:48:47;99305.50;;;3.54;60.63
43115;BME280;28727;50.068;14.452;2023-02-26T11:51:24;99313.78;;;3.59;61.20
43115;BME280;28727;50.068;14.452;2023-02-26T11:54:00;99311.59;;;3.44;61.15
43115;BME280;28727;50.068;14.452;2023-02-26T11:56:40;99310.94;;;3.30;62.00
43115;BME280;28727;50.068;14.452;2023-02-26T11:59:24;99319.47;;;3.33;62.12
43115;BME280;28727;50.068;14.452;2023-02-26T12:02:01;99316.63;;;3.24;61.67
43115;BME280;28727;50.068;14.452;2023-02-26T12:04:33;99323.53;;;3.25;61.38
43115;BME280;28727;50.068;14.452;2023-02-26T12:07:11;99320.84;;;3.16;60.43
43115;BME280;28727;50.068;14.452;2023-02-26T12:09:45;99329.75;;;3.02;60.97
43115;BME280;28727;50.068;14.452;2023-02-26T12:17:53;99329.66;;;2.93;61.42
43115;BME280;28727;50.068;14.452;2023-02-26T12:26:25;99329.91;;;2.78;61.29
43115;BME280;28727;50.068;14.452;2023-02-26T12:50:36;99330.28;;;3.28;59.63
43115;BME280;28727;50.068;14.452;2023-02-26T12:59:23;99357.69;;;3.34;58.31
43115;BME280;28727;50.068;14.452;2023-02-26T13:13:44;99362.00;;;2.90;59.61
43115;BME280;28727;50.068;14.452;2023-02-26T13:22:50;99354.91;;;3.03;59.24
43115;BME280;28727;50.068;14.452;2023-02-26T13:25:00;99369.50;;;3.06;58.48
43115;BME280;28727;50.068;14.452;2023-02-26T13:27:36;99367.69;;;2.95;58.38
43115;BME280;28727;50.068;14.452;2023-02-26T13:30:37;99364.41;;;2.93;58.42
43115;BME280;28727;50.068;14.452;2023-02-26T13:33:16;99372.09;;;2.95;59.30
43115;BME280;28727;50.068;14.452;2023-02-26T13:35:51;99367.00;;;2.93;58.80
43115;BME280;28727;50.068;14.452;2023-02-26T13:38:45;99376.03;;;3.00;58.91
43115;BME280;28727;50.068;14.452;2023-02-26T13:41:37;99376.25;;;2.97;58.79
43115;BME280;28727;50.068;14.452;2023-02-26T14:07:12;99377.78;;;3.11;57.72
43115;BME280;28727;50.068;14.452;2023-02-26T14:10:02;99373.72;;;3.07;57.86
43115;BME280;28727;50.068;14.452;2023-02-26T14:12:37;99375.88;;;3.02;58.00
43115;BME280;28727;50.068;14.452;2023-02-26T14:17:51;99376.59;;;3.04;57.99
43115;BME280;28727;50.068;14.452;2023-02-26T14:20:24;99381.81;;;3.04;57.07
43115;BME280;28727;50.068;14.452;2023-02-26T14:25:48;99385.28;;;2.93;56.32
43115;BME280;28727;50.068;14.452;2023-02-26T14:31:08;99390.00;;;2.99;56.48
43115;BME280;28727;50.068;14.452;2023-02-26T14:36:43;99402.44;;;2.84;57.17
43115;BME280;28727;50.068;14.452;2023-02-26T14:42:07;99396.06;;;2.88;56.98
43115;BME280;28727;50.068;14.452;2023-02-26T14:44:47;99395.94;;;2.90;56.56
43115;BME280;28727;50.068;14.452;2023-02-26T14:47:20;99396.41;;;2.84;56.29
43115;BME280;28727;50.068;14.452;2023-02-26T14:49:53;99392.97;;;2.83;55.97
43115;BME280;28727;50.068;14.452;2023-02-26T14:52:40;99401.63;;;2.84;56.52
43115;BME280;28727;50.068;14.452;2023-02-26T15:04:22;99414.91;;;2.92;56.33
43115;BME280;28727;50.068;14.452;2023-02-26T15:16:14;99432.34;;;2.92;54.90
43115;BME280;28727;50.068;14.452;2023-02-26T15:19:39;99430.31;;;2.95;54.78
43115;BME280;28727;50.068;14.452;2023-02-26T15:22:42;99436.63;;;2.93;54.56
43115;BME280;28727;50.068;14.452;2023-02-26T15:25:29;99444.91;;;2.75;54.04
43115;BME280;28727;50.068;14.452;2023-02-26T15:28:03;99452.00;;;2.62;54.62
43115;BME280;28727;50.068;14.452;2023-02-26T15:30:47;99456.38;;;2.62;54.76
43115;BME280;28727;50.068;14.452;2023-02-26T15:33:23;99459.19;;;2.47;54.69
43115;BME280;28727;50.068;14.452;2023-02-26T15:35:56;99456.91;;;2.43;55.19
43115;BME280;28727;50.068;14.452;2023-02-26T15:38:28;99462.63;;;2.48;55.13
43115;BME280;28727;50.068;14.452;2023-02-26T15:41:06;99462.88;;;2.45;55.15
43115;BME280;28727;50.068;14.452;2023-02-26T15:43:45;99462.88;;;2.45;55.71
43115;BME280;28727;50.068;14.452;2023-02-26T15:46:22;99458.47;;;2.45;55.91
43115;BME280;28727;50.068;14.452;2023-02-26T15:49:04;99472.00;;;2.51;55.11
43115;BME280;28727;50.068;14.452;2023-02-26T15:51:41;99468.19;;;2.55;55.33
43115;BME280;28727;50.068;14.452;2023-02-26T15:54:23;99468.47;;;2.63;55.52
43115;BME280;28727;50.068;14.452;2023-02-26T15:56:55;99473.91;;;2.60;55.51
43115;BME280;28727;50.068;14.452;2023-02-26T15:59:30;99479.25;;;2.58;55.81
43115;BME280;28727;50.068;14.452;2023-02-26T16:02:03;99484.34;;;2.60;55.67
43115;BME280;28727;50.068;14.452;2023-02-26T16:04:37;99488.59;;;2.61;55.66
43115;BME280;28727;50.068;14.452;2023-02-26T16:07:11;99493.59;;;2.64;55.81
43115;BME280;28727;50.068;14.452;2023-02-26T16:09:50;99498.09;;;2.62;54.75
43115;BME280;28727;50.068;14.452;2023-02-26T16:12:34;99502.25;;;2.64;54.56
43115;BME280;28727;50.068;14.452;2023-02-26T16:15:12;99506.66;;;2.64;55.04
43115;BME280;28727;50.068;14.452;2023-02-26T16:17:48;99515.31;;;2.64;54.98
43115;BME280;28727;50.068;14.452;2023-02-26T16:20:24;99521.34;;;2.65;54.77
43115;BME280;28727;50.068;14.452;2023-02-26T16:23:01;99529.03;;;2.66;55.23
43115;BME280;28727;50.068;14.452;2023-02-26T16:26:00;99530.31;;;2.61;54.17
43115;BME280;28727;50.068;14.452;2023-02-26T16:28:38;99540.28;;;2.67;54.36
43115;BME280;28727;50.068;14.452;2023-02-26T16:31:26;99538.84;;;2.52;54.68
43115;BME280;28727;50.068;14.452;2023-02-26T16:34:02;99550.22;;;2.51;54.62
43115;BME280;28727;50.068;14.452;2023-02-26T16:36:40;99556.16;;;2.53;54.45
43115;BME280;28727;50.068;14.452;2023-02-26T16:39:29;99559.69;;;2.52;54.22
43115;BME280;28727;50.068;14.452;2023-02-26T16:42:13;99571.97;;;2.38;54.91
43115;BME280;28727;50.068;14.452;2023-02-26T16:47:47;99571.97;;;2.38;55.03
43115;BME280;28727;50.068;14.452;2023-02-26T16:50:27;99580.13;;;2.34;55.69
43115;BME280;28727;50.068;14.452;2023-02-26T16:53:06;99587.69;;;2.37;55.69
43115;BME280;28727;50.068;14.452;2023-02-26T16:55:38;99585.81;;;2.39;55.33
43115;BME280;28727;50.068;14.452;2023-02-26T16:58:14;99596.97;;;2.41;55.54
43115;BME280;28727;50.068;14.452;2023-02-26T17:00:50;99607.41;;;2.41;55.17
43115;BME280;28727;50.068;14.452;2023-02-26T17:03:25;99610.56;;;2.33;55.63